Time;durP1;ratioP1;P1;durP2;ratioP2;P2;SDS_P1;SDS_P2;PMS_P1;PMS_P2;Temp;Humidity;BMP_temperature;BMP_pressure;BME280_temperature;BME280_humidity;BME280_pressure;Samples;Min_cycle;Max_cycle;Signal;HPM_P1;HPM_P2
2024/04/18 00:01:34;;;;;;;20.63;15.27;;;5.30;99.90;;;;;;5453477;26;20231;-70
2024/04/18 00:04:00;;;;;;;24.37;17.00;;;5.30;99.90;;;;;;5454377;26;20729;-70
2024/04/18 00:06:25;;;;;;;20.10;16.07;;;5.30;99.90;;;;;;5454670;26;20211;-71
2024/04/18 00:08:51;;;;;;;23.00;16.67;;;5.30;99.90;;;;;;5453915;26;20619;-70
2024/04/18 00:11:16;;;;;;;21.67;15.70;;;5.30;99.90;;;;;;5454267;26;20223;-70
2024/04/18 00:13:42;;;;;;;24.10;17.80;;;5.20;99.90;;;;;;5454101;26;20639;-70
2024/04/18 00:16:08;;;;;;;23.17;16.40;;;5.30;99.90;;;;;;5453944;26;20215;-70
2024/04/18 00:18:33;;;;;;;22.10;16.60;;;5.20;99.90;;;;;;5453324;26;20258;-70
2024/04/18 00:20:59;;;;;;;24.00;16.47;;;5.20;99.90;;;;;;5453157;26;20246;-70
2024/04/18 00:23:24;;;;;;;27.43;18.97;;;5.10;99.90;;;;;;5453665;26;20563;-71
2024/04/18 00:25:50;;;;;;;25.53;17.57;;;5.10;99.90;;;;;;5453244;26;20219;-70
2024/04/18 00:28:15;;;;;;;27.03;18.87;;;5.10;99.90;;;;;;5453648;26;20207;-71
2024/04/18 00:30:42;;;;;;;28.63;18.57;;;5.20;99.90;;;;;;5453014;26;20564;-71
2024/04/18 00:33:07;;;;;;;28.60;17.77;;;5.20;99.90;;;;;;5453810;26;20207;-73
2024/04/18 00:35:33;;;;;;;27.00;17.67;;;5.20;99.90;;;;;;5453229;26;20748;-71
2024/04/18 00:37:59;;;;;;;26.57;18.50;;;5.20;99.90;;;;;;5452840;26;20215;-71
2024/04/18 00:40:25;;;;;;;29.53;17.53;;;5.20;99.90;;;;;;5452494;26;20231;-71
2024/04/18 00:42:50;;;;;;;23.60;16.60;;;5.30;99.90;;;;;;5453240;26;20798;-71
2024/04/18 00:45:16;;;;;;;25.00;17.40;;;5.30;99.90;;;;;;5453331;26;20601;-71
2024/04/18 00:47:43;;;;;;;25.17;17.67;;;5.20;99.90;;;;;;5453182;26;20287;-70
2024/04/18 00:52:37;;;;;;;23.03;16.33;;;5.20;99.90;;;;;;5444489;26;20783;-74
2024/04/18 00:55:04;;;;;;;23.83;16.67;;;5.10;99.90;;;;;;5447286;26;20207;-74
2024/04/18 00:57:32;;;;;;;21.63;15.37;;;5.20;99.90;;;;;;5414856;26;20220;-73
2024/04/18 00:59:58;;;;;;;22.67;15.50;;;5.20;99.90;;;;;;5413970;26;20262;-74
2024/04/18 01:02:25;;;;;;;26.83;15.53;;;5.20;99.90;;;;;;5445097;26;20227;-73
2024/04/18 01:04:51;;;;;;;20.60;14.83;;;5.20;99.90;;;;;;5444684;26;20271;-74
2024/04/18 01:07:17;;;;;;;18.77;15.03;;;5.20;99.90;;;;;;5413830;26;20250;-74
2024/04/18 01:09:42;;;;;;;20.10;14.93;;;5.30;99.90;;;;;;5445059;26;20593;-74
2024/04/18 01:12:08;;;;;;;18.03;14.67;;;5.30;99.90;;;;;;5445230;26;20211;-74
2024/04/18 01:14:33;;;;;;;22.17;16.20;;;5.30;99.90;;;;;;5413802;26;20227;-73
2024/04/18 01:17:02;;;;;;;24.93;17.13;;;5.30;99.90;;;;;;5445600;26;20258;-73
2024/04/18 01:19:27;;;;;;;29.37;19.90;;;5.40;99.90;;;;;;5413197;26;20231;-73
2024/04/18 01:21:54;;;;;;;26.83;18.33;;;5.40;99.90;;;;;;5445508;26;20682;-74
2024/04/18 01:24:20;;;;;;;29.53;19.97;;;5.40;99.90;;;;;;5445593;26;20211;-73
2024/04/18 01:26:46;;;;;;;30.40;22.43;;;5.40;99.90;;;;;;5444937;26;20279;-74
2024/04/18 01:29:11;;;;;;;32.17;21.33;;;5.40;99.90;;;;;;5444906;26;20294;-74
2024/04/18 01:31:37;;;;;;;31.37;20.50;;;5.40;99.90;;;;;;5445210;26;20220;-73
2024/04/18 01:34:02;;;;;;;32.57;22.83;;;5.50;99.90;;;;;;5413712;26;20569;-73
2024/04/18 01:36:28;;;;;;;29.57;21.63;;;5.50;99.90;;;;;;5445554;26;20212;-72
2024/04/18 01:38:54;;;;;;;34.20;22.60;;;5.50;99.90;;;;;;5445427;26;20274;-73
2024/04/18 01:41:21;;;;;;;34.07;22.83;;;5.60;99.90;;;;;;5445266;26;20223;-73
2024/04/18 01:43:46;;;;;;;36.63;24.07;;;5.60;99.90;;;;;;5413629;26;20265;-73
2024/04/18 01:46:12;;;;;;;37.87;24.30;;;5.70;99.90;;;;;;5445714;26;20211;-73
2024/04/18 01:48:38;;;;;;;34.23;22.83;;;5.70;99.90;;;;;;5445604;26;20614;-73
2024/04/18 01:51:03;;;;;;;37.27;23.93;;;5.70;99.90;;;;;;5413128;26;20790;-74
2024/04/18 01:53:29;;;;;;;32.03;21.77;;;5.70;99.90;;;;;;5446166;26;20219;-74
2024/04/18 01:55:55;;;;;;;34.37;21.80;;;5.70;99.90;;;;;;5445952;26;20343;-74
2024/04/18 01:58:21;;;;;;;37.47;23.70;;;5.70;99.90;;;;;;5445824;26;20319;-74
2024/04/18 02:00:46;;;;;;;36.93;24.70;;;5.70;99.90;;;;;;5444607;26;20239;-73
2024/04/18 02:03:12;;;;;;;34.23;23.37;;;5.70;99.90;;;;;;5445455;26;20224;-73
2024/04/18 02:05:38;;;;;;;36.97;24.37;;;5.80;99.90;;;;;;5445664;26;20788;-73
2024/04/18 02:08:04;;;;;;;34.57;23.77;;;5.80;99.90;;;;;;5445033;26;20227;-73
2024/04/18 02:10:30;;;;;;;34.33;22.97;;;5.80;99.90;;;;;;5445453;26;20274;-74
2024/04/18 02:12:56;;;;;;;34.37;22.90;;;5.90;99.90;;;;;;5445634;26;20211;-74
2024/04/18 02:15:23;;;;;;;38.57;24.00;;;5.90;99.90;;;;;;5445541;26;20292;-73
2024/04/18 02:17:49;;;;;;;33.93;22.17;;;5.80;99.90;;;;;;5413065;26;20227;-73
2024/04/18 02:20:15;;;;;;;36.73;23.30;;;5.70;99.90;;;;;;5413859;26;20330;-73
2024/04/18 02:22:41;;;;;;;34.67;21.60;;;5.70;99.90;;;;;;5445213;26;20211;-73
2024/04/18 02:25:10;;;;;;;35.97;21.73;;;5.50;99.90;;;;;;5446005;26;20806;-73
2024/04/18 02:27:37;;;;;;;40.37;22.87;;;5.50;99.90;;;;;;5413891;26;20312;-73
2024/04/18 02:30:06;;;;;;;35.10;22.17;;;5.40;99.90;;;;;;5444181;26;20626;-73
2024/04/18 02:32:32;;;;;;;34.70;22.77;;;5.40;99.90;;;;;;5443572;26;20224;-73
2024/04/18 02:34:58;;;;;;;33.93;21.30;;;5.40;99.90;;;;;;5444624;26;20214;-73
2024/04/18 02:37:24;;;;;;;51.73;31.23;;;5.40;99.90;;;;;;5412730;26;20227;-73
2024/04/18 02:39:50;;;;;;;31.93;21.87;;;5.30;99.90;;;;;;5444021;26;20327;-73
2024/04/18 02:42:16;;;;;;;50.87;31.60;;;5.30;99.90;;;;;;5444702;26;20238;-73
2024/04/18 02:44:42;;;;;;;33.00;21.60;;;5.30;99.90;;;;;;5443982;26;20270;-73
2024/04/18 02:47:08;;;;;;;35.07;23.10;;;5.20;99.90;;;;;;5444491;26;20207;-73
2024/04/18 02:49:34;;;;;;;39.70;25.33;;;5.20;99.90;;;;;;5443635;26;20261;-73
2024/04/18 02:52:00;;;;;;;40.40;26.43;;;5.20;99.90;;;;;;5412457;26;20227;-73
2024/04/18 02:54:26;;;;;;;44.83;28.13;;;5.20;99.90;;;;;;5443629;26;20246;-73
2024/04/18 02:56:51;;;;;;;59.47;34.73;;;5.20;99.90;;;;;;5411347;26;20231;-73
2024/04/18 02:59:17;;;;;;;37.57;24.33;;;5.10;99.90;;;;;;5411643;26;20267;-73
2024/04/18 03:01:42;;;;;;;45.47;28.97;;;5.10;99.90;;;;;;5443964;26;20207;-73
2024/04/18 03:04:08;;;;;;;118.20;65.53;;;5.10;99.90;;;;;;5412044;26;20553;-73
2024/04/18 03:06:34;;;;;;;43.73;26.47;;;5.10;99.90;;;;;;5444296;26;20315;-72
2024/04/18 03:08:59;;;;;;;50.33;34.03;;;5.10;99.90;;;;;;5412175;26;20303;-73
2024/04/18 03:11:25;;;;;;;33.00;21.77;;;5.00;99.90;;;;;;5405887;26;20753;-73
2024/04/18 03:13:51;;;;;;;32.53;21.93;;;5.00;99.90;;;;;;5376754;26;20236;-73
2024/04/18 03:16:17;;;;;;;38.33;24.60;;;4.90;99.90;;;;;;5377346;26;20336;-73
2024/04/18 03:18:42;;;;;;;30.13;20.53;;;4.90;99.90;;;;;;5407048;26;20225;-73
2024/04/18 03:21:08;;;;;;;33.93;20.77;;;4.80;99.90;;;;;;5407301;26;20335;-72
2024/04/18 03:23:34;;;;;;;30.23;19.60;;;4.70;99.90;;;;;;5407663;26;20209;-73
2024/04/18 03:25:59;;;;;;;27.73;19.40;;;4.60;99.90;;;;;;5401310;26;20734;-73
2024/04/18 03:28:25;;;;;;;26.90;18.77;;;4.50;99.90;;;;;;5442871;26;20270;-73
2024/04/18 03:30:50;;;;;;;29.60;18.63;;;4.50;99.90;;;;;;5442517;26;20266;-72
2024/04/18 03:33:16;;;;;;;28.43;18.97;;;4.40;99.90;;;;;;5443818;26;20737;-73
2024/04/18 03:35:42;;;;;;;27.60;18.80;;;4.40;99.90;;;;;;5412035;26;20253;-73
2024/04/18 03:38:07;;;;;;;27.13;18.73;;;4.40;99.90;;;;;;5443241;26;20310;-72
2024/04/18 03:40:34;;;;;;;29.63;20.17;;;4.30;99.90;;;;;;5411851;26;20235;-73
2024/04/18 03:42:59;;;;;;;27.83;21.10;;;4.30;99.90;;;;;;5411688;26;20227;-73
2024/04/18 03:45:27;;;;;;;27.73;17.67;;;4.30;99.90;;;;;;5411520;26;20215;-73
2024/04/18 03:47:53;;;;;;;30.87;22.43;;;4.20;99.90;;;;;;5443256;26;20211;-73
2024/04/18 03:50:19;;;;;;;43.10;32.17;;;4.20;99.90;;;;;;5442816;26;20327;-72
2024/04/18 03:52:45;;;;;;;38.43;28.47;;;4.20;99.90;;;;;;5443455;26;20300;-73
2024/04/18 03:55:10;;;;;;;31.23;23.60;;;4.30;99.90;;;;;;5443260;26;20550;-73
2024/04/18 03:57:36;;;;;;;36.37;20.87;;;4.30;99.90;;;;;;5443101;26;20211;-73
2024/04/18 04:00:03;;;;;;;38.57;27.50;;;4.30;99.90;;;;;;5411159;26;20239;-73
2024/04/18 04:02:32;;;;;;;34.33;21.40;;;4.30;99.90;;;;;;5442615;26;20215;-73
2024/04/18 04:04:58;;;;;;;30.40;19.70;;;4.40;99.90;;;;;;5443089;26;20686;-72
2024/04/18 04:07:24;;;;;;;42.87;27.40;;;4.40;99.90;;;;;;5411209;26;20219;-72
2024/04/18 04:09:50;;;;;;;33.50;22.50;;;4.40;99.90;;;;;;5441726;26;20231;-73
2024/04/18 04:12:16;;;;;;;33.37;19.73;;;4.50;99.90;;;;;;5412145;26;20246;-73
2024/04/18 04:14:41;;;;;;;32.07;18.93;;;4.50;99.90;;;;;;5442980;26;20246;-73
2024/04/18 04:17:10;;;;;;;30.27;19.00;;;4.50;99.90;;;;;;5443114;26;20208;-73
2024/04/18 04:19:36;;;;;;;30.83;18.20;;;4.50;99.90;;;;;;5442819;26;20270;-72
2024/04/18 04:22:02;;;;;;;30.83;18.43;;;4.60;99.90;;;;;;5442239;26;20207;-73
2024/04/18 04:24:27;;;;;;;28.80;18.53;;;4.60;99.90;;;;;;5442110;26;20216;-72
2024/04/18 04:26:53;;;;;;;31.73;19.57;;;4.70;99.90;;;;;;5442992;26;20686;-73
2024/04/18 04:29:19;;;;;;;30.30;18.90;;;4.70;99.90;;;;;;5442454;26;20315;-73
2024/04/18 04:31:45;;;;;;;31.73;18.97;;;4.70;99.90;;;;;;5442424;26;20607;-73
2024/04/18 04:34:12;;;;;;;27.53;18.23;;;4.80;99.90;;;;;;5442218;26;20208;-73
2024/04/18 04:36:37;;;;;;;27.07;18.70;;;4.80;99.90;;;;;;5442116;26;20208;-73
2024/04/18 04:39:03;;;;;;;29.00;17.90;;;4.80;99.90;;;;;;5445993;26;20266;-72
2024/04/18 04:41:28;;;;;;;32.13;18.30;;;4.80;99.90;;;;;;5445875;26;20247;-72
2024/04/18 04:43:54;;;;;;;26.50;18.77;;;4.80;99.90;;;;;;5447243;26;20215;-72
2024/04/18 04:46:20;;;;;;;29.90;17.93;;;4.80;99.90;;;;;;5446646;26;20215;-72
2024/04/18 04:48:46;;;;;;;31.30;19.40;;;4.80;99.90;;;;;;5447046;26;20258;-73
2024/04/18 04:51:11;;;;;;;28.47;18.13;;;4.80;99.90;;;;;;5447480;26;20300;-73
2024/04/18 04:53:37;;;;;;;29.67;18.03;;;4.80;99.90;;;;;;5446850;26;20577;-73
2024/04/18 04:56:03;;;;;;;32.33;19.57;;;4.90;99.90;;;;;;5447159;26;20211;-74
2024/04/18 04:58:29;;;;;;;28.53;19.13;;;4.90;99.90;;;;;;5447299;26;20519;-73
2024/04/18 05:00:56;;;;;;;30.20;18.30;;;5.00;99.90;;;;;;5446917;26;20220;-73
2024/04/18 05:03:22;;;;;;;27.90;18.00;;;5.00;99.90;;;;;;5445812;26;20212;-73
2024/04/18 05:05:47;;;;;;;30.30;18.87;;;5.10;99.90;;;;;;5445471;26;20629;-73
2024/04/18 05:08:13;;;;;;;27.70;18.40;;;5.10;99.90;;;;;;5446691;26;20676;-73
2024/04/18 05:10:43;;;;;;;27.83;19.03;;;5.10;99.90;;;;;;5447129;26;20219;-73
2024/04/18 05:13:12;;;;;;;31.30;19.97;;;5.20;99.90;;;;;;5445546;26;20258;-72
2024/04/18 05:15:39;;;;;;;28.33;18.80;;;5.20;99.90;;;;;;5443764;26;20235;-72
2024/04/18 05:18:05;;;;;;;29.63;18.27;;;5.30;99.90;;;;;;5444557;26;20319;-73
2024/04/18 05:20:31;;;;;;;30.47;17.90;;;5.40;99.90;;;;;;5443801;26;20226;-73
2024/04/18 05:22:56;;;;;;;27.90;18.43;;;5.40;99.90;;;;;;5442673;26;20256;-72
2024/04/18 05:25:22;;;;;;;34.30;19.50;;;5.40;99.90;;;;;;5442904;26;20737;-72
2024/04/18 05:28:10;;;;;;;27.50;18.27;;;5.40;99.90;;;;;;5442469;26;20714;-72
2024/04/18 05:33:23;;;;;;;26.40;17.83;;;5.20;99.90;;;;;;5442634;26;20254;-72
2024/04/18 05:35:50;;;;;;;25.50;17.63;;;5.20;99.90;;;;;;5442975;26;20242;-72
2024/04/18 05:38:16;;;;;;;22.30;15.93;;;5.10;99.90;;;;;;5444189;26;20208;-73
2024/04/18 05:40:41;;;;;;;26.83;18.13;;;5.10;99.90;;;;;;5443613;26;20220;-72
2024/04/18 05:43:07;;;;;;;25.30;16.97;;;5.10;99.90;;;;;;5442425;26;20764;-72
2024/04/18 05:45:32;;;;;;;25.27;16.67;;;5.10;99.90;;;;;;5442726;26;20211;-73
2024/04/18 05:47:58;;;;;;;25.00;17.80;;;5.20;99.90;;;;;;5442855;26;20223;-73
2024/04/18 05:50:24;;;;;;;23.40;16.77;;;5.30;99.90;;;;;;5441690;26;20623;-73
2024/04/18 05:52:49;;;;;;;25.10;16.43;;;5.50;99.90;;;;;;5411173;26;20744;-73
2024/04/18 05:55:15;;;;;;;23.57;16.73;;;5.60;99.90;;;;;;5444001;26;20212;-73
2024/04/18 05:57:41;;;;;;;29.47;17.47;;;5.90;99.90;;;;;;5443344;26;20290;-73
2024/04/18 06:00:07;;;;;;;20.90;17.07;;;6.10;99.90;;;;;;5441638;26;20219;-73
2024/04/18 06:02:32;;;;;;;21.67;16.10;;;6.20;99.90;;;;;;5440733;26;20207;-74
2024/04/18 06:04:58;;;;;;;22.40;15.93;;;6.40;99.90;;;;;;5442128;26;20319;-73
2024/04/18 06:07:23;;;;;;;21.77;15.27;;;6.40;99.90;;;;;;5442669;26;20249;-73
2024/04/18 06:09:49;;;;;;;22.23;15.57;;;6.30;99.90;;;;;;5442263;26;20606;-74
2024/04/18 06:12:17;;;;;;;18.73;15.03;;;6.30;99.90;;;;;;5441975;26;20683;-73
2024/04/18 06:14:42;;;;;;;19.70;15.43;;;6.30;99.90;;;;;;5441219;26;20254;-73
2024/04/18 06:17:08;;;;;;;22.53;14.80;;;6.30;99.90;;;;;;5439559;26;20231;-73
2024/04/18 06:19:34;;;;;;;21.80;14.90;;;6.30;99.90;;;;;;5440485;26;20281;-73
2024/04/18 06:21:59;;;;;;;19.13;14.53;;;6.20;99.90;;;;;;5440921;26;20300;-73
2024/04/18 06:24:26;;;;;;;23.03;15.73;;;6.30;99.90;;;;;;5441110;26;20594;-73
2024/04/18 06:26:52;;;;;;;20.90;15.23;;;6.30;99.90;;;;;;5441061;26;20261;-74
2024/04/18 06:29:17;;;;;;;22.40;14.63;;;6.40;99.90;;;;;;5440632;26;20704;-74
2024/04/18 06:31:43;;;;;;;23.83;13.87;;;6.50;99.90;;;;;;5442468;26;20323;-74
2024/04/18 06:34:09;;;;;;;18.70;14.10;;;6.50;99.90;;;;;;5442049;26;20274;-74
2024/04/18 06:36:35;;;;;;;36.83;26.53;;;6.60;99.90;;;;;;5443239;26;20203;-73
2024/04/18 06:39:00;;;;;;;53.03;33.83;;;6.60;99.90;;;;;;5440176;26;20208;-73
2024/04/18 06:41:26;;;;;;;39.07;25.53;;;6.50;99.90;;;;;;5440333;26;20246;-74
2024/04/18 06:43:51;;;;;;;17.20;15.40;;;6.50;99.90;;;;;;5440740;26;20224;-73
2024/04/18 06:46:17;;;;;;;29.00;18.27;;;6.60;99.90;;;;;;5440572;26;20613;-73
2024/04/18 06:48:43;;;;;;;20.87;17.10;;;6.70;99.90;;;;;;5440906;26;20215;-74
2024/04/18 06:53:36;;;;;;;21.63;15.97;;;7.30;99.90;;;;;;5377650;26;20586;-71
2024/04/18 06:56:02;;;;;;;28.93;20.23;;;7.60;99.90;;;;;;5380168;26;20264;-71
2024/04/18 06:58:28;;;;;;;27.67;19.40;;;7.90;99.90;;;;;;5382365;26;20222;-71
2024/04/18 07:00:53;;;;;;;16.43;12.37;;;8.10;99.90;;;;;;5378824;26;20277;-72
2024/04/18 07:03:19;;;;;;;17.63;14.17;;;8.20;99.90;;;;;;5385524;26;20248;-72
2024/04/18 07:05:45;;;;;;;17.07;11.57;;;8.50;99.90;;;;;;5354973;26;20237;-72
2024/04/18 07:08:10;;;;;;;17.63;12.27;;;8.70;99.90;;;;;;5385792;26;20617;-72
2024/04/18 07:10:36;;;;;;;67.27;39.73;;;9.00;99.90;;;;;;5351587;26;20243;-71
2024/04/18 07:13:02;;;;;;;18.80;16.17;;;9.30;99.90;;;;;;5382536;26;20209;-72
2024/04/18 07:15:28;;;;;;;16.17;14.47;;;9.50;99.90;;;;;;5381909;26;20233;-72
2024/04/18 07:17:56;;;;;;;11.47;8.90;;;9.70;99.90;;;;;;5379881;26;20537;-72
2024/04/18 07:20:21;;;;;;;7.97;7.00;;;10.10;99.90;;;;;;5347908;26;20637;-71
2024/04/18 07:22:47;;;;;;;8.43;7.30;;;10.30;99.90;;;;;;5378592;26;20267;-71
2024/04/18 07:25:13;;;;;;;7.63;6.07;;;10.40;99.90;;;;;;5378981;26;20236;-71
2024/04/18 07:27:39;;;;;;;14.13;5.93;;;10.30;99.90;;;;;;5379017;26;20218;-71
2024/04/18 07:30:05;;;;;;;11.47;5.93;;;10.30;99.90;;;;;;5378839;26;20205;-71
2024/04/18 07:32:30;;;;;;;11.23;6.67;;;10.40;99.90;;;;;;5379564;26;20310;-71
2024/04/18 07:34:56;;;;;;;8.23;6.80;;;10.20;99.90;;;;;;5379067;26;20221;-71
2024/04/18 07:37:22;;;;;;;8.87;6.07;;;10.30;99.90;;;;;;5379287;26;20222;-72
2024/04/18 07:39:48;;;;;;;7.73;5.63;;;10.60;99.90;;;;;;5378831;26;20217;-71
2024/04/18 07:42:15;;;;;;;7.90;5.60;;;10.70;99.90;;;;;;5378691;26;20312;-71
2024/04/18 07:44:41;;;;;;;8.07;6.97;;;11.00;99.90;;;;;;5378713;26;20280;-71
2024/04/18 07:47:07;;;;;;;7.40;5.87;;;11.10;99.90;;;;;;5378967;26;20256;-71
2024/04/18 07:49:32;;;;;;;10.13;4.90;;;11.40;99.90;;;;;;5378461;26;20259;-71
2024/04/18 07:51:58;;;;;;;6.87;4.67;;;11.60;1.00;;;;;;5378339;26;20229;-71
2024/04/18 07:54:24;;;;;;;7.23;4.97;;;11.70;1.00;;;;;;5378963;26;20225;-71
2024/04/18 07:56:49;;;;;;;7.27;5.03;;;11.60;1.00;;;;;;5379134;26;20208;-71
2024/04/18 07:59:15;;;;;;;7.90;4.57;;;11.80;1.00;;;;;;5378981;26;20217;-71
2024/04/18 08:01:41;;;;;;;5.50;5.00;;;11.90;1.00;;;;;;5379466;26;20729;-71
2024/04/18 08:04:08;;;;;;;5.87;4.00;;;12.20;1.00;;;;;;5379503;26;20573;-71
2024/04/18 08:06:34;;;;;;;8.67;4.20;;;12.30;1.00;;;;;;5349191;26;20724;-71
2024/04/18 08:09:00;;;;;;;6.77;4.47;;;12.30;1.00;;;;;;5379663;26;20264;-71
2024/04/18 08:11:25;;;;;;;6.43;4.30;;;12.60;1.00;;;;;;5378944;26;20272;-71
2024/04/18 08:13:51;;;;;;;8.23;4.13;;;12.80;1.00;;;;;;5382447;26;20206;-72
2024/04/18 08:16:17;;;;;;;9.43;4.57;;;13.00;1.00;;;;;;5382535;26;20209;-72
2024/04/18 08:18:43;;;;;;;8.90;4.83;;;13.20;1.00;;;;;;5382388;26;20750;-71
2024/04/18 08:21:08;;;;;;;9.50;4.10;;;12.90;1.00;;;;;;5382095;26;20228;-73
2024/04/18 08:23:34;;;;;;;7.47;4.00;;;12.60;1.00;;;;;;5382535;26;20255;-73
2024/04/18 08:26:00;;;;;;;6.80;3.80;;;12.30;1.00;;;;;;5382055;26;20632;-73
2024/04/18 08:28:26;;;;;;;4.07;3.33;;;12.10;1.00;;;;;;5382342;26;20628;-72
2024/04/18 08:30:51;;;;;;;4.30;3.60;;;12.30;1.00;;;;;;5382553;26;20334;-73
2024/04/18 08:33:17;;;;;;;5.13;4.00;;;12.70;1.00;;;;;;5381686;26;20224;-72
2024/04/18 08:35:46;;;;;;;4.43;3.20;;;13.00;1.00;;;;;;5381801;26;20278;-71
2024/04/18 08:38:12;;;;;;;7.70;3.40;;;13.10;1.00;;;;;;5381480;26;20217;-73
2024/04/18 08:40:38;;;;;;;10.90;3.70;;;13.20;99.90;;;;;;5381472;26;20217;-71
2024/04/18 08:43:04;;;;;;;6.30;3.40;;;13.40;1.00;;;;;;5381581;26;20590;-71
2024/04/18 08:45:39;;;;;;;5.23;3.53;;;14.00;99.90;;;;;;5381753;26;20684;-71
2024/04/18 08:48:05;;;;;;;4.73;3.33;;;14.40;99.90;;;;;;5381485;26;20299;-71
2024/04/18 08:50:32;;;;;;;4.73;2.97;;;14.40;99.90;;;;;;5381515;26;20209;-71
2024/04/18 08:52:59;;;;;;;7.23;3.40;;;14.20;99.90;;;;;;5381131;26;20221;-70
2024/04/18 08:55:25;;;;;;;6.33;3.10;;;14.30;99.90;;;;;;5381527;26;20213;-72
2024/04/18 08:58:00;;;;;;;5.73;3.17;;;14.30;99.90;;;;;;5381499;26;20575;-71
2024/04/18 09:00:26;;;;;;;10.13;3.97;;;14.30;99.90;;;;;;5379192;26;20256;-70
2024/04/18 09:02:52;;;;;;;5.67;2.90;;;14.20;99.90;;;;;;5380974;26;20225;-71
2024/04/18 09:05:18;;;;;;;4.47;2.80;;;14.50;99.90;;;;;;5351057;26;20565;-71
2024/04/18 09:07:43;;;;;;;3.93;2.90;;;14.70;99.90;;;;;;5381195;26;20324;-71
2024/04/18 09:10:09;;;;;;;4.67;2.50;;;15.10;99.90;;;;;;5380990;26;20217;-70
2024/04/18 09:12:35;;;;;;;4.77;3.03;;;15.50;99.90;;;;;;5381378;26;20217;-71
2024/04/18 09:15:02;;;;;;;4.00;2.90;;;15.80;99.90;;;;;;5381691;26;20244;-71
2024/04/18 09:17:28;;;;;;;4.60;2.77;;;16.00;99.90;;;;;;5381933;26;20566;-71
2024/04/18 09:19:54;;;;;;;5.13;2.87;;;16.00;99.90;;;;;;5380800;26;20210;-70
2024/04/18 09:22:21;;;;;;;6.47;3.80;;;15.60;99.90;;;;;;5380817;26;20828;-71
2024/04/18 09:24:46;;;;;;;8.17;3.13;;;15.30;99.90;;;;;;5379576;26;20209;-70
2024/04/18 09:27:15;;;;;;;6.07;3.27;;;14.90;99.90;;;;;;5379998;26;20259;-70
2024/04/18 09:29:41;;;;;;;6.77;4.27;;;14.70;99.90;;;;;;5380574;26;20217;-71
2024/04/18 09:32:07;;;;;;;6.63;4.40;;;14.60;99.90;;;;;;5380835;26;20252;-71
2024/04/18 09:34:34;;;;;;;7.33;4.13;;;14.50;99.90;;;;;;5380597;26;20233;-72
2024/04/18 09:37:05;;;;;;;4.70;4.00;;;14.50;99.90;;;;;;5380581;26;20225;-71
2024/04/18 09:39:33;;;;;;;10.17;5.60;;;14.20;99.90;;;;;;5380327;26;20277;-71
2024/04/18 09:42:27;;;;;;;8.70;5.23;;;13.90;99.90;;;;;;5380862;26;20260;-71
2024/04/18 09:44:56;;;;;;;8.80;5.17;;;13.70;99.90;;;;;;5380803;26;20274;-71
2024/04/18 09:47:23;;;;;;;5.67;4.60;;;13.40;99.90;;;;;;5380578;26;20322;-71
2024/04/18 09:49:50;;;;;;;4.93;4.43;;;13.80;99.90;;;;;;5380442;26;20263;-72
2024/04/18 09:52:16;;;;;;;5.23;4.37;;;14.00;99.90;;;;;;5380351;26;20267;-72
2024/04/18 09:54:42;;;;;;;6.53;4.07;;;14.40;99.90;;;;;;5381143;26;20264;-71
2024/04/18 09:57:10;;;;;;;7.90;3.90;;;14.50;99.90;;;;;;5380889;26;20210;-71
2024/04/18 09:59:37;;;;;;;4.00;3.60;;;14.90;99.90;;;;;;5380609;26;20217;-71
2024/04/18 10:02:11;;;;;;;7.10;4.10;;;15.00;99.90;;;;;;5380528;26;20226;-71
2024/04/18 10:04:37;;;;;;;6.23;3.80;;;15.10;99.90;;;;;;5380348;26;20306;-72
2024/04/18 10:07:07;;;;;;;6.10;3.70;;;15.30;99.90;;;;;;5380248;26;20229;-70
2024/04/18 10:09:35;;;;;;;3.57;2.90;;;15.30;99.90;;;;;;5380000;26;20375;-71
2024/04/18 10:12:01;;;;;;;6.00;3.00;;;15.10;99.90;;;;;;5380369;26;20272;-72
2024/04/18 10:14:27;;;;;;;4.83;3.20;;;15.20;99.90;;;;;;5379823;26;20221;-71
2024/04/18 10:16:52;;;;;;;3.80;2.80;;;15.30;99.90;;;;;;5380090;26;20260;-71
2024/04/18 10:19:22;;;;;;;4.60;3.00;;;15.00;99.90;;;;;;5378887;26;20217;-71
2024/04/18 10:21:56;;;;;;;3.50;3.00;;;14.90;99.90;;;;;;5379901;26;20638;-71
2024/04/18 10:24:21;;;;;;;5.63;3.03;;;15.00;99.90;;;;;;5380016;26;20221;-71
2024/04/18 10:27:00;;;;;;;4.27;2.77;;;14.60;99.90;;;;;;5380138;26;20248;-71
2024/04/18 10:29:26;;;;;;;6.33;2.80;;;14.50;99.90;;;;;;5379770;26;20708;-71
2024/04/18 10:31:54;;;;;;;6.30;2.73;;;14.60;99.90;;;;;;5380064;26;20222;-72
2024/04/18 10:34:23;;;;;;;3.73;2.80;;;15.10;99.90;;;;;;5379855;26;20218;-71
2024/04/18 10:36:49;;;;;;;3.73;2.80;;;15.40;99.90;;;;;;5380484;26;20209;-72
2024/04/18 10:39:31;;;;;;;3.03;2.53;;;15.20;99.90;;;;;;5379590;26;20222;-72
2024/04/18 10:42:05;;;;;;;3.20;2.50;;;14.50;99.90;;;;;;5379918;26;20284;-71
2024/04/18 10:44:33;;;;;;;3.80;2.40;;;13.80;99.90;;;;;;5379675;26;20217;-72
2024/04/18 10:46:58;;;;;;;3.53;2.77;;;13.40;99.90;;;;;;5379842;26;20322;-71
2024/04/18 10:49:24;;;;;;;3.73;2.40;;;13.30;99.90;;;;;;5379487;26;20625;-72
2024/04/18 10:51:51;;;;;;;3.97;2.50;;;13.40;99.90;;;;;;5379192;26;20719;-71
2024/04/18 10:54:17;;;;;;;2.50;2.30;;;13.60;99.90;;;;;;5379651;26;20273;-71
2024/04/18 10:56:46;;;;;;;2.97;2.67;;;13.90;99.90;;;;;;5379679;26;20557;-72
2024/04/18 10:59:12;;;;;;;2.83;2.30;;;14.40;99.90;;;;;;5379458;26;20271;-71
2024/04/18 11:01:38;;;;;;;3.57;2.10;;;14.80;99.90;;;;;;5379622;26;20276;-71
2024/04/18 11:04:05;;;;;;;2.30;2.10;;;15.00;99.90;;;;;;5379705;26;20256;-71
2024/04/18 11:06:30;;;;;;;3.53;2.00;;;15.20;99.90;;;;;;5379411;26;20213;-70
2024/04/18 11:08:59;;;;;;;4.77;2.00;;;15.50;99.90;;;;;;5379251;26;20229;-72
2024/04/18 11:11:31;;;;;;;2.53;2.10;;;15.70;99.90;;;;;;5378827;26;20225;-71
2024/04/18 11:13:58;;;;;;;2.80;2.00;;;16.00;99.90;;;;;;5379570;26;20268;-70
2024/04/18 11:16:25;;;;;;;5.23;2.17;;;16.10;99.90;;;;;;5379034;26;20271;-71
2024/04/18 11:18:52;;;;;;;4.43;2.87;;;15.90;99.90;;;;;;5381076;26;20280;-71
2024/04/18 11:21:17;;;;;;;2.73;2.27;;;15.90;99.90;;;;;;5378413;26;20241;-73
2024/04/18 11:23:43;;;;;;;2.30;2.10;;;16.00;99.90;;;;;;5378379;26;20303;-71
2024/04/18 11:26:12;;;;;;;3.20;2.00;;;16.20;99.90;;;;;;5378536;26;20601;-72
2024/04/18 11:28:39;;;;;;;3.27;2.07;;;16.60;99.90;;;;;;5379224;26;20556;-72
2024/04/18 11:31:05;;;;;;;2.33;2.20;;;16.90;99.90;;;;;;5378294;26;20225;-72
2024/04/18 11:33:33;;;;;;;2.20;2.10;;;16.40;99.90;;;;;;5379036;26;20726;-71
2024/04/18 11:35:58;;;;;;;2.43;2.20;;;16.00;99.90;;;;;;5379065;26;20210;-71
2024/04/18 11:38:24;;;;;;;2.73;2.30;;;15.60;99.90;;;;;;5379067;26;20663;-71
2024/04/18 11:40:50;;;;;;;4.50;2.03;;;15.30;99.90;;;;;;5379724;26;20210;-70
2024/04/18 11:43:15;;;;;;;4.30;2.30;;;15.10;99.90;;;;;;5379924;26;20212;-72
2024/04/18 11:45:41;;;;;;;3.07;2.30;;;14.80;99.90;;;;;;5380221;26;20205;-71
2024/04/18 11:48:07;;;;;;;3.80;2.47;;;14.60;99.90;;;;;;5377597;26;20210;-71
2024/04/18 11:50:32;;;;;;;3.23;2.20;;;14.70;99.90;;;;;;5378674;26;20343;-70
2024/04/18 11:52:58;;;;;;;2.33;2.13;;;15.00;99.90;;;;;;5378637;26;20229;-70
2024/04/18 11:55:24;;;;;;;5.20;2.40;;;15.20;99.90;;;;;;5378743;26;20210;-70
2024/04/18 11:57:49;;;;;;;3.10;2.13;;;14.90;99.90;;;;;;5378449;26;20259;-70
2024/04/18 12:00:15;;;;;;;3.80;2.43;;;14.70;99.90;;;;;;5377063;26;20291;-70
2024/04/18 12:02:41;;;;;;;4.67;2.67;;;14.30;99.90;;;;;;5377848;26;20705;-70
2024/04/18 12:05:07;;;;;;;2.90;2.10;;;14.00;99.90;;;;;;5377758;26;20233;-70
2024/04/18 12:07:33;;;;;;;2.50;2.27;;;14.10;99.90;;;;;;5377192;26;20221;-70
2024/04/18 12:09:59;;;;;;;2.60;2.40;;;14.30;99.90;;;;;;5376570;26;20255;-70
2024/04/18 12:12:24;;;;;;;2.70;2.30;;;14.70;99.90;;;;;;5376280;26;20276;-70
2024/04/18 12:14:50;;;;;;;2.67;2.30;;;15.30;99.90;;;;;;5377244;26;20276;-70
2024/04/18 12:17:16;;;;;;;2.20;2.00;;;15.90;99.90;;;;;;5376607;26;20653;-70
2024/04/18 12:19:42;;;;;;;2.20;2.00;;;16.60;99.90;;;;;;5376787;26;20305;-72
2024/04/18 12:22:15;;;;;;;3.07;1.93;;;17.00;99.90;;;;;;5377326;26;20311;-72
2024/04/18 12:24:40;;;;;;;2.37;2.10;;;16.90;99.90;;;;;;5377498;26;20475;-72
2024/04/18 12:27:06;;;;;;;4.03;2.10;;;16.50;99.90;;;;;;5377896;26;20342;-71
2024/04/18 12:29:32;;;;;;;2.43;2.30;;;16.10;99.90;;;;;;5377542;26;20334;-71
2024/04/18 12:31:59;;;;;;;3.27;2.43;;;15.70;99.90;;;;;;5377967;26;20559;-70
2024/04/18 12:34:25;;;;;;;3.40;2.07;;;15.50;99.90;;;;;;5377138;26;20221;-70
2024/04/18 12:36:51;;;;;;;2.63;2.13;;;15.70;99.90;;;;;;5376936;26;20209;-71
2024/04/18 12:39:17;;;;;;;2.60;2.40;;;15.70;99.90;;;;;;5377140;26;20786;-71
2024/04/18 12:41:43;;;;;;;2.40;2.20;;;15.40;99.90;;;;;;5377501;26;20217;-72
2024/04/18 12:44:09;;;;;;;2.40;2.20;;;15.20;99.90;;;;;;5377324;26;20225;-72